Time;durP1;ratioP1;P1;durP2;ratioP2;P2;SDS_P1;SDS_P2;PMS_P1;PMS_P2;Temp;Humidity;BMP_temperature;BMP_pressure;BME280_temperature;BME280_humidity;BME280_pressure;Samples;Min_cycle;Max_cycle;Signal;HPM_P1;HPM_P2
2021/04/03 00:00:30;;;;;;;3.83;1.23;;;6.60;91.50;;;;;;5092859;28;20190;-72
2021/04/03 00:02:57;;;;;;;3.13;0.80;;;6.60;91.50;;;;;;5094756;28;20199;-72
2021/04/03 00:05:24;;;;;;;3.15;0.93;;;6.60;91.40;;;;;;5096456;28;20187;-71
2021/04/03 00:07:50;;;;;;;3.15;1.33;;;6.60;91.70;;;;;;5096920;28;20168;-71
2021/04/03 00:10:21;;;;;;;6.80;1.13;;;6.60;91.30;;;;;;5095392;28;20178;-73
2021/04/03 00:12:47;;;;;;;4.35;1.40;;;6.60;91.20;;;;;;5096760;28;20256;-72
2021/04/03 00:15:13;;;;;;;7.43;1.90;;;6.60;91.30;;;;;;5094587;28;20211;-72
2021/04/03 00:17:39;;;;;;;4.95;1.63;;;6.60;91.20;;;;;;5096368;28;20867;-71
2021/04/03 00:20:09;;;;;;;3.60;1.17;;;6.60;91.10;;;;;;5096428;28;20290;-73
2021/04/03 00:22:35;;;;;;;4.45;1.67;;;6.60;91.00;;;;;;5096295;28;20168;-71
2021/04/03 00:25:01;;;;;;;3.87;1.53;;;6.60;90.90;;;;;;5096088;28;20168;-70
2021/04/03 00:27:26;;;;;;;3.93;1.60;;;6.60;91.10;;;;;;5096277;28;20430;-72
2021/04/03 00:29:52;;;;;;;5.37;1.53;;;6.60;91.00;;;;;;5096172;28;20896;-73
2021/04/03 00:32:17;;;;;;;5.20;1.07;;;6.60;90.90;;;;;;5096215;28;20205;-72
2021/04/03 00:34:43;;;;;;;3.90;1.30;;;6.60;90.90;;;;;;5095201;28;20713;-73
2021/04/03 00:37:09;;;;;;;3.47;1.03;;;6.60;91.10;;;;;;5095941;28;20223;-73
2021/04/03 00:39:34;;;;;;;3.43;1.53;;;6.50;90.90;;;;;;5096108;28;20188;-72
2021/04/03 00:42:14;;;;;;;4.10;1.57;;;6.50;91.20;;;;;;5094823;28;20164;-72
2021/04/03 00:44:46;;;;;;;2.70;0.70;;;6.50;91.10;;;;;;5094355;28;20221;-71
2021/04/03 00:47:13;;;;;;;2.80;0.60;;;6.50;91.70;;;;;;5094670;28;20292;-71
2021/04/03 00:49:41;;;;;;;3.42;1.48;;;6.40;91.50;;;;;;5095585;28;20263;-71
2021/04/03 00:52:08;;;;;;;2.90;0.90;;;6.40;91.30;;;;;;5096081;28;20718;-72
2021/04/03 00:54:35;;;;;;;2.92;0.68;;;6.50;91.60;;;;;;5095538;28;20171;-72
2021/04/03 00:57:02;;;;;;;2.92;0.75;;;6.40;91.50;;;;;;5095778;28;20542;-72
2021/04/03 00:59:28;;;;;;;2.90;0.85;;;6.40;91.60;;;;;;5094492;28;20195;-72
2021/04/03 01:01:54;;;;;;;5.57;1.10;;;6.40;91.80;;;;;;5095861;28;20164;-72
2021/04/03 01:04:19;;;;;;;3.37;0.97;;;6.40;91.60;;;;;;5095066;28;20176;-70
2021/04/03 01:06:45;;;;;;;4.17;1.63;;;6.40;91.30;;;;;;5095345;28;20224;-72
2021/04/03 01:09:11;;;;;;;5.63;2.77;;;6.40;91.40;;;;;;5094174;28;20183;-71
2021/04/03 01:11:43;;;;;;;7.13;1.47;;;6.40;91.30;;;;;;5095342;28;20527;-72
2021/04/03 01:14:12;;;;;;;3.45;1.10;;;6.40;91.50;;;;;;5094940;28;20525;-72
2021/04/03 01:16:48;;;;;;;2.90;0.80;;;6.40;91.50;;;;;;5095363;28;20216;-72
2021/04/03 01:19:26;;;;;;;3.13;0.75;;;6.40;91.60;;;;;;5095169;28;20661;-71
2021/04/03 01:22:29;;;;;;;5.18;1.40;;;6.40;91.70;;;;;;5095110;28;20168;-72
2021/04/03 01:25:19;;;;;;;3.03;0.70;;;6.40;91.80;;;;;;5094942;28;20168;-71
2021/04/03 01:28:13;;;;;;;3.50;1.77;;;6.40;91.60;;;;;;5094819;28;20511;-72
2021/04/03 01:30:45;;;;;;;4.05;1.25;;;6.40;91.50;;;;;;5095450;28;20171;-72
2021/04/03 01:33:12;;;;;;;4.00;1.40;;;6.40;91.50;;;;;;5095360;28;20164;-72
2021/04/03 01:35:53;;;;;;;3.65;2.22;;;6.40;91.50;;;;;;5093250;28;20198;-72
2021/04/03 01:38:41;;;;;;;3.42;1.27;;;6.40;91.70;;;;;;5093945;28;20176;-72
2021/04/03 01:41:07;;;;;;;7.07;1.92;;;6.40;91.80;;;;;;5094710;28;20216;-72
2021/04/03 01:43:44;;;;;;;3.40;1.67;;;6.30;91.70;;;;;;5094954;28;20531;-73
2021/04/03 01:46:11;;;;;;;4.47;2.25;;;6.30;91.90;;;;;;5094988;28;20207;-71
2021/04/03 01:48:38;;;;;;;3.35;1.25;;;6.20;92.40;;;;;;5094758;28;20168;-71
2021/04/03 01:51:05;;;;;;;4.70;1.77;;;6.10;92.10;;;;;;5094749;28;20215;-73
2021/04/03 01:53:32;;;;;;;3.45;1.27;;;6.00;91.90;;;;;;5094759;28;20210;-72
2021/04/03 01:56:01;;;;;;;3.67;1.33;;;6.00;92.20;;;;;;5093834;28;20615;-71
2021/04/03 01:58:27;;;;;;;4.13;1.45;;;5.90;92.30;;;;;;5093605;28;20176;-71
2021/04/03 02:00:53;;;;;;;3.27;0.63;;;5.90;92.60;;;;;;5094605;28;20202;-72
2021/04/03 02:03:19;;;;;;;4.17;2.03;;;5.90;92.60;;;;;;5094933;28;20406;-72
2021/04/03 02:05:48;;;;;;;3.00;0.97;;;5.80;92.60;;;;;;5093773;28;20960;-72
2021/04/03 02:08:15;;;;;;;3.80;1.95;;;5.80;92.30;;;;;;5094439;28;20895;-72
2021/04/03 02:10:41;;;;;;;3.67;0.98;;;5.70;92.40;;;;;;5092987;28;20175;-72
2021/04/03 02:13:07;;;;;;;3.47;0.60;;;5.70;92.90;;;;;;5094489;28;20175;-72
2021/04/03 02:15:33;;;;;;;2.97;0.70;;;5.70;92.80;;;;;;5093777;28;20329;-72
2021/04/03 02:18:03;;;;;;;3.55;1.00;;;5.60;92.90;;;;;;5094231;28;20183;-72
2021/04/03 02:20:29;;;;;;;3.53;1.35;;;5.60;92.90;;;;;;5094342;28;20199;-72
2021/04/03 02:22:56;;;;;;;3.90;1.60;;;5.60;93.10;;;;;;5094255;28;20160;-71
2021/04/03 02:25:21;;;;;;;3.55;1.00;;;5.60;93.30;;;;;;5093079;28;20192;-74
2021/04/03 02:27:47;;;;;;;3.37;0.90;;;5.60;93.30;;;;;;5093986;28;20175;-72
2021/04/03 02:30:19;;;;;;;3.67;1.47;;;5.60;93.10;;;;;;5093586;28;20180;-71
2021/04/03 02:32:51;;;;;;;3.10;1.08;;;5.60;92.90;;;;;;5094255;28;20259;-72
2021/04/03 02:35:19;;;;;;;3.05;0.80;;;5.60;92.70;;;;;;5093589;28;20175;-72
2021/04/03 02:37:46;;;;;;;3.47;0.90;;;5.70;92.50;;;;;;5092676;28;20176;-72
2021/04/03 02:40:16;;;;;;;3.10;0.93;;;5.70;92.40;;;;;;5093944;28;20589;-72
2021/04/03 02:42:54;;;;;;;2.88;0.65;;;5.80;92.50;;;;;;5093841;28;20174;-72
2021/04/03 02:45:23;;;;;;;3.58;1.20;;;5.80;92.50;;;;;;5093074;28;20172;-71
2021/04/03 02:47:59;;;;;;;4.22;1.60;;;5.80;92.40;;;;;;5093768;28;20191;-72
2021/04/03 02:50:45;;;;;;;4.55;1.75;;;5.80;92.50;;;;;;5092551;28;20233;-71
2021/04/03 02:53:13;;;;;;;4.68;1.00;;;5.80;92.50;;;;;;5092054;28;20176;-72
2021/04/03 02:55:46;;;;;;;3.47;1.20;;;5.80;92.70;;;;;;5091963;28;20191;-71
2021/04/03 02:58:15;;;;;;;3.65;1.85;;;5.70;92.80;;;;;;5093848;28;20194;-71
2021/04/03 03:00:42;;;;;;;2.80;0.45;;;5.70;93.00;;;;;;5091858;28;20245;-72
2021/04/03 03:03:09;;;;;;;3.83;1.52;;;5.60;93.00;;;;;;5093579;28;20168;-71
2021/04/03 03:05:36;;;;;;;4.03;1.73;;;5.60;92.90;;;;;;5093046;28;20184;-71
2021/04/03 03:08:04;;;;;;;4.88;1.48;;;5.60;93.30;;;;;;5092219;28;20180;-72
2021/04/03 03:10:29;;;;;;;3.38;1.30;;;5.50;93.40;;;;;;5093122;28;20661;-72
2021/04/03 03:12:56;;;;;;;2.93;0.73;;;5.40;93.90;;;;;;5093606;28;20172;-71
2021/04/03 03:15:28;;;;;;;3.20;0.90;;;5.50;94.10;;;;;;5093121;28;20689;-72
2021/04/03 03:17:55;;;;;;;3.20;1.20;;;5.40;94.20;;;;;;5092167;28;20582;-72
2021/04/03 03:20:21;;;;;;;3.33;1.23;;;5.40;94.30;;;;;;5093083;28;20220;-71
2021/04/03 03:22:49;;;;;;;3.30;0.60;;;5.40;94.20;;;;;;5093335;28;20203;-72
2021/04/03 03:25:15;;;;;;;18.05;2.47;;;5.40;94.40;;;;;;5092909;28;20394;-71
2021/04/03 03:27:45;;;;;;;3.37;1.40;;;5.40;94.60;;;;;;5093305;28;20368;-72
2021/04/03 03:30:15;;;;;;;2.90;0.68;;;5.40;94.80;;;;;;5093417;28;20493;-71
2021/04/03 03:32:41;;;;;;;3.90;1.38;;;5.30;95.10;;;;;;5092007;28;20176;-72
2021/04/03 03:35:07;;;;;;;3.57;1.20;;;5.30;95.30;;;;;;5092343;28;20183;-72
2021/04/03 03:37:34;;;;;;;3.00;0.73;;;5.20;95.30;;;;;;5094795;28;20402;-73
2021/04/03 03:40:01;;;;;;;3.20;1.05;;;5.20;95.50;;;;;;5097294;28;20187;-73
2021/04/03 03:42:27;;;;;;;3.70;0.70;;;5.20;95.50;;;;;;5097276;28;20647;-72
2021/04/03 03:44:54;;;;;;;4.25;1.63;;;5.10;95.50;;;;;;5096430;28;20180;-74
2021/04/03 03:47:20;;;;;;;3.45;0.93;;;5.10;95.60;;;;;;5097181;28;20222;-73
2021/04/03 03:49:46;;;;;;;3.47;1.23;;;5.10;95.70;;;;;;5095744;28;20208;-72
2021/04/03 03:52:12;;;;;;;3.87;1.70;;;5.10;95.70;;;;;;5097254;28;20179;-71
2021/04/03 03:54:38;;;;;;;3.38;0.57;;;5.00;95.80;;;;;;5096563;28;20527;-72
2021/04/03 03:57:04;;;;;;;3.60;1.20;;;5.00;96.00;;;;;;5096906;28;20249;-73
2021/04/03 03:59:30;;;;;;;3.00;0.80;;;5.00;96.30;;;;;;5096457;28;20199;-72
2021/04/03 04:01:56;;;;;;;4.57;1.80;;;5.00;96.40;;;;;;5096995;28;20175;-71
2021/04/03 04:04:21;;;;;;;3.20;1.03;;;4.90;96.40;;;;;;5095200;28;20684;-72
2021/04/03 04:06:47;;;;;;;3.20;0.90;;;4.90;96.40;;;;;;5095234;28;20245;-72
2021/04/03 04:09:13;;;;;;;3.20;0.60;;;4.90;96.50;;;;;;5096775;28;20172;-74
2021/04/03 04:11:39;;;;;;;3.87;1.73;;;4.90;96.60;;;;;;5096896;28;20930;-71
2021/04/03 04:14:04;;;;;;;5.50;1.33;;;4.80;96.80;;;;;;5096125;28;20187;-73
2021/04/03 04:16:30;;;;;;;3.40;1.27;;;4.80;96.80;;;;;;5096593;28;20199;-72
2021/04/03 04:18:55;;;;;;;3.23;0.80;;;4.90;97.00;;;;;;5095080;28;20569;-73
2021/04/03 04:21:24;;;;;;;4.60;1.20;;;4.90;97.00;;;;;;5095032;28;20295;-72
2021/04/03 04:23:51;;;;;;;4.15;0.68;;;4.90;96.90;;;;;;5096076;28;20228;-72
2021/04/03 04:26:16;;;;;;;3.10;1.13;;;4.90;96.60;;;;;;5095038;28;20666;-72
2021/04/03 04:28:42;;;;;;;3.40;1.17;;;5.00;96.50;;;;;;5095375;28;20190;-72
2021/04/03 04:31:08;;;;;;;2.87;0.50;;;5.00;96.30;;;;;;5096180;28;20176;-73
2021/04/03 04:33:34;;;;;;;3.03;0.70;;;5.00;96.10;;;;;;5096259;28;20771;-72
2021/04/03 04:36:00;;;;;;;3.60;1.17;;;5.10;96.40;;;;;;5094381;28;20200;-73
2021/04/03 04:38:25;;;;;;;3.83;1.10;;;5.10;96.30;;;;;;5096202;28;20175;-72
2021/04/03 04:40:51;;;;;;;4.70;1.37;;;5.20;96.10;;;;;;5094915;28;20311;-71
2021/04/03 04:43:21;;;;;;;4.03;1.23;;;5.20;95.90;;;;;;5095851;28;20168;-72
2021/04/03 04:45:47;;;;;;;3.83;1.95;;;5.20;95.80;;;;;;5095314;28;21070;-72
2021/04/03 04:48:13;;;;;;;3.60;0.82;;;5.20;95.80;;;;;;5095604;28;20172;-71
2021/04/03 04:50:38;;;;;;;2.90;0.50;;;5.20;95.80;;;;;;5094234;28;20182;-71
2021/04/03 04:53:06;;;;;;;3.80;1.60;;;5.30;96.00;;;;;;5096065;28;20409;-73
2021/04/03 04:55:32;;;;;;;3.10;0.93;;;5.30;95.80;;;;;;5095508;28;20721;-72
2021/04/03 04:57:58;;;;;;;4.53;1.98;;;5.30;95.70;;;;;;5095392;28;20257;-71
2021/04/03 05:00:24;;;;;;;3.53;0.70;;;5.30;95.50;;;;;;5095854;28;20233;-70
2021/04/03 05:02:50;;;;;;;2.90;0.60;;;5.30;95.50;;;;;;5094399;28;20924;-71
2021/04/03 05:05:16;;;;;;;3.10;0.60;;;5.30;95.60;;;;;;5095232;28;20241;-70
2021/04/03 05:07:41;;;;;;;3.20;0.83;;;5.30;95.50;;;;;;5095315;28;20228;-72
2021/04/03 05:10:07;;;;;;;3.30;1.27;;;5.40;95.50;;;;;;5095766;28;20168;-72
2021/04/03 05:12:33;;;;;;;4.60;2.10;;;5.40;95.40;;;;;;5095590;28;20564;-71
2021/04/03 05:14:59;;;;;;;3.20;0.90;;;5.40;95.40;;;;;;5095046;28;20171;-72
2021/04/03 05:17:24;;;;;;;5.33;1.87;;;5.40;95.60;;;;;;5094899;28;20207;-71
2021/04/03 05:19:50;;;;;;;3.10;0.83;;;5.40;95.60;;;;;;5095544;28;20191;-73
2021/04/03 05:22:16;;;;;;;4.87;1.67;;;5.40;95.80;;;;;;5095329;28;20167;-73
2021/04/03 05:24:41;;;;;;;7.57;1.73;;;5.50;96.10;;;;;;5093643;28;20168;-72
2021/04/03 05:27:07;;;;;;;3.33;0.83;;;5.50;96.10;;;;;;5094563;28;20224;-73
2021/04/03 05:29:33;;;;;;;2.95;0.70;;;5.70;96.10;;;;;;5095056;28;20224;-70
2021/04/03 05:31:59;;;;;;;3.33;0.70;;;6.00;95.20;;;;;;5095060;28;20500;-72
2021/04/03 05:34:24;;;;;;;4.60;1.27;;;6.10;94.60;;;;;;5093330;28;20206;-72
2021/04/03 05:36:50;;;;;;;3.47;1.00;;;6.20;94.30;;;;;;5094681;28;20204;-72
2021/04/03 05:39:16;;;;;;;3.10;0.83;;;6.30;93.60;;;;;;5094909;28;20176;-72
2021/04/03 05:41:42;;;;;;;5.63;1.23;;;6.50;93.50;;;;;;5093580;28;20211;-73
2021/04/03 05:44:10;;;;;;;3.10;0.70;;;6.60;93.30;;;;;;5094698;28;20499;-73
2021/04/03 05:46:41;;;;;;;3.20;0.80;;;6.90;93.00;;;;;;5094716;28;20455;-73
2021/04/03 05:49:07;;;;;;;3.70;1.45;;;7.10;92.30;;;;;;5094788;28;20156;-73
2021/04/03 05:51:34;;;;;;;4.00;1.00;;;7.30;91.70;;;;;;5094476;28;20210;-73
2021/04/03 05:54:01;;;;;;;8.77;0.80;;;7.50;91.40;;;;;;5094357;28;20817;-74
2021/04/03 05:56:28;;;;;;;3.30;0.80;;;7.50;91.10;;;;;;5094746;28;20185;-71
2021/04/03 05:58:54;;;;;;;4.20;0.90;;;7.60;91.10;;;;;;5093266;28;20557;-72
2021/04/03 06:01:22;;;;;;;3.20;1.00;;;7.50;90.80;;;;;;5094282;28;20197;-70
2021/04/03 06:03:48;;;;;;;4.32;1.10;;;7.40;90.70;;;;;;5092913;28;20200;-72
2021/04/03 06:06:14;;;;;;;3.20;0.80;;;7.40;91.00;;;;;;5094094;28;20188;-72
2021/04/03 06:08:40;;;;;;;3.70;0.90;;;7.40;90.90;;;;;;5094668;28;20176;-72
2021/04/03 06:11:15;;;;;;;3.92;1.20;;;7.50;90.70;;;;;;5094132;28;20204;-72
2021/04/03 06:13:42;;;;;;;3.30;1.15;;;7.70;90.50;;;;;;5094340;28;20178;-72
2021/04/03 06:16:48;;;;;;;4.13;1.25;;;8.00;90.00;;;;;;5094121;28;20288;-73
2021/04/03 06:19:27;;;;;;;3.55;0.82;;;8.40;89.20;;;;;;5093894;28;20598;-73
2021/04/03 06:21:52;;;;;;;3.00;0.80;;;8.90;87.20;;;;;;5092630;28;20176;-73
2021/04/03 06:24:21;;;;;;;4.17;0.93;;;9.10;86.20;;;;;;5094196;28;20231;-73
2021/04/03 06:26:59;;;;;;;3.10;0.80;;;9.40;84.80;;;;;;5094123;28;20190;-73
2021/04/03 06:29:37;;;;;;;4.13;1.83;;;9.50;83.70;;;;;;5093613;28;20160;-72
2021/04/03 06:32:04;;;;;;;3.78;1.30;;;9.40;83.20;;;;;;5094133;28;20172;-71
2021/04/03 06:34:31;;;;;;;3.30;1.00;;;9.50;83.10;;;;;;5093689;28;20623;-72
2021/04/03 06:36:57;;;;;;;5.55;1.65;;;9.50;82.40;;;;;;5092623;28;20227;-72
2021/04/03 06:39:23;;;;;;;4.40;1.33;;;9.50;82.80;;;;;;5092762;28;20200;-72
2021/04/03 06:41:49;;;;;;;3.40;0.90;;;9.50;83.40;;;;;;5094063;28;20169;-73
2021/04/03 06:44:15;;;;;;;4.35;1.45;;;9.60;83.60;;;;;;5093087;28;20164;-72
2021/04/03 06:46:43;;;;;;;3.33;1.03;;;9.80;81.60;;;;;;5094007;28;20237;-71
2021/04/03 06:49:10;;;;;;;3.80;1.60;;;9.80;81.60;;;;;;5094173;28;20164;-71
2021/04/03 06:51:36;;;;;;;5.43;1.63;;;10.00;79.80;;;;;;5092482;28;20179;-72
2021/04/03 06:54:04;;;;;;;3.90;1.13;;;10.20;79.30;;;;;;5092720;28;20267;-72
2021/04/03 06:56:33;;;;;;;4.47;1.10;;;10.60;79.10;;;;;;5092316;28;20200;-72
2021/04/03 06:59:04;;;;;;;4.95;1.25;;;10.60;78.00;;;;;;5093764;28;20160;-72
2021/04/03 07:01:36;;;;;;;3.58;1.30;;;10.50;77.40;;;;;;5093326;28;20180;-73
2021/04/03 07:04:09;;;;;;;3.25;0.90;;;10.60;77.50;;;;;;5093536;28;20162;-72
2021/04/03 07:06:36;;;;;;;3.72;1.60;;;10.50;77.20;;;;;;5093816;28;20268;-73
2021/04/03 07:09:05;;;;;;;4.22;1.80;;;10.40;76.60;;;;;;5092224;28;20198;-72
2021/04/03 07:11:31;;;;;;;3.30;1.10;;;10.40;76.30;;;;;;5092737;28;20179;-74
2021/04/03 07:14:00;;;;;;;3.75;0.90;;;10.40;77.30;;;;;;5093407;28;20250;-74
2021/04/03 07:16:27;;;;;;;4.30;1.38;;;10.60;76.50;;;;;;5093719;28;20271;-72
2021/04/03 07:18:55;;;;;;;5.00;1.38;;;10.60;74.70;;;;;;5094032;28;20187;-68
2021/04/03 07:21:22;;;;;;;3.47;0.80;;;10.90;75.70;;;;;;5093472;28;20206;-73
2021/04/03 07:23:49;;;;;;;3.57;1.37;;;11.10;74.60;;;;;;5092796;28;20170;-73
2021/04/03 07:26:16;;;;;;;3.80;1.20;;;11.20;73.00;;;;;;5091954;28;20436;-72
2021/04/03 07:28:43;;;;;;;3.85;1.15;;;11.20;71.90;;;;;;5093194;28;20398;-72
2021/04/03 07:31:09;;;;;;;3.90;1.17;;;11.10;72.30;;;;;;5093301;28;20176;-71
2021/04/03 07:33:48;;;;;;;3.63;1.33;;;11.30;73.50;;;;;;5093213;28;20177;-71
2021/04/03 07:36:34;;;;;;;5.20;0.90;;;11.50;71.50;;;;;;5093085;28;20542;-70
2021/04/03 07:39:00;;;;;;;3.23;1.03;;;11.50;69.60;;;;;;5092858;28;20889;-69
2021/04/03 07:41:35;;;;;;;3.60;1.00;;;11.40;69.40;;;;;;5093295;28;20457;-71
2021/04/03 07:44:13;;;;;;;3.40;0.90;;;11.70;69.10;;;;;;5093067;28;21242;-70
2021/04/03 07:46:48;;;;;;;3.27;0.70;;;11.80;67.40;;;;;;5092980;28;20460;-71
2021/04/03 07:49:31;;;;;;;5.83;1.07;;;11.90;68.00;;;;;;5093226;28;20447;-69
2021/04/03 07:51:57;;;;;;;4.17;1.63;;;12.10;67.70;;;;;;5093152;28;20398;-71
2021/04/03 07:54:25;;;;;;;4.20;1.57;;;12.40;67.90;;;;;;5091068;28;20422;-71
2021/04/03 07:56:53;;;;;;;3.50;1.00;;;13.00;66.90;;;;;;5092943;28;20452;-70
2021/04/03 07:59:48;;;;;;;4.00;1.70;;;13.50;64.50;;;;;;5093159;28;20394;-72
2021/04/03 08:02:19;;;;;;;3.67;1.00;;;13.60;62.70;;;;;;5093146;28;20402;-72
2021/04/03 08:04:45;;;;;;;4.80;1.33;;;13.10;63.20;;;;;;5092703;28;20398;-69
2021/04/03 08:07:11;;;;;;;4.17;1.30;;;12.50;64.80;;;;;;5092959;28;20429;-69
2021/04/03 08:09:37;;;;;;;3.60;1.10;;;12.10;65.10;;;;;;5091459;28;20184;-72
2021/04/03 08:12:05;;;;;;;4.83;1.43;;;11.50;66.60;;;;;;5092787;28;20414;-69
2021/04/03 08:14:32;;;;;;;3.07;0.77;;;11.10;67.50;;;;;;5092754;28;20484;-71
2021/04/03 08:17:00;;;;;;;3.23;1.10;;;11.10;68.30;;;;;;5092285;28;20454;-70
2021/04/03 08:19:31;;;;;;;3.10;0.70;;;11.60;68.30;;;;;;5092655;28;20430;-72
2021/04/03 08:21:57;;;;;;;4.40;1.37;;;12.50;66.00;;;;;;5092862;28;20422;-70
2021/04/03 08:24:23;;;;;;;5.70;1.50;;;13.00;62.90;;;;;;5092090;28;20920;-69
2021/04/03 08:26:51;;;;;;;3.30;1.10;;;13.20;62.40;;;;;;5096448;28;20425;-70
2021/04/03 08:29:26;;;;;;;4.40;0.80;;;13.10;61.80;;;;;;5095077;28;20742;-71
2021/04/03 08:31:52;;;;;;;3.90;1.70;;;12.80;62.20;;;;;;5096326;28;20457;-71
2021/04/03 08:34:19;;;;;;;3.70;1.00;;;12.50;62.60;;;;;;5095489;28;20424;-71
2021/04/03 08:36:44;;;;;;;2.90;0.90;;;12.30;63.60;;;;;;5095979;28;20460;-71
2021/04/03 08:39:15;;;;;;;2.90;1.03;;;12.70;65.60;;;;;;5096372;28;20437;-73
2021/04/03 08:41:43;;;;;;;3.53;1.17;;;13.90;63.40;;;;;;5096444;28;20179;-71
2021/04/03 08:44:26;;;;;;;3.90;1.20;;;15.10;60.80;;;;;;5095666;28;20406;-72
2021/04/03 08:46:57;;;;;;;3.20;1.17;;;15.60;58.30;;;;;;5096112;28;20745;-71
2021/04/03 08:49:30;;;;;;;4.97;1.20;;;16.10;57.10;;;;;;5095352;28;20418;-71
2021/04/03 08:51:56;;;;;;;3.53;1.27;;;16.30;56.50;;;;;;5095656;28;20406;-70
2021/04/03 08:54:22;;;;;;;3.03;0.90;;;16.10;55.60;;;;;;5095413;28;20402;-72
2021/04/03 08:56:48;;;;;;;3.57;1.20;;;15.80;56.30;;;;;;5095792;28;20415;-71
2021/04/03 08:59:16;;;;;;;2.90;1.00;;;15.80;56.10;;;;;;5095751;28;20397;-70
2021/04/03 09:01:47;;;;;;;2.90;0.90;;;15.60;55.80;;;;;;5095701;28;20171;-72
2021/04/03 09:04:14;;;;;;;3.17;1.13;;;14.70;56.60;;;;;;5094856;28;20476;-69
2021/04/03 09:06:47;;;;;;;3.97;1.73;;;13.80;57.10;;;;;;5095506;28;20426;-70
2021/04/03 09:09:29;;;;;;;5.20;1.73;;;12.40;59.30;;;;;;5095596;28;20398;-68
2021/04/03 09:12:04;;;;;;;3.97;1.20;;;11.80;61.30;;;;;;5095310;28;20421;-72
2021/04/03 09:14:37;;;;;;;3.27;0.90;;;11.70;63.40;;;;;;5095337;28;20720;-72
2021/04/03 09:17:16;;;;;;;2.60;0.60;;;12.20;62.10;;;;;;5095748;28;20498;-73
2021/04/03 09:19:42;;;;;;;2.83;0.93;;;12.30;63.00;;;;;;5095178;28;20454;-73
2021/04/03 09:22:13;;;;;;;3.60;1.20;;;13.10;62.40;;;;;;5095055;28;20402;-72
2021/04/03 09:24:43;;;;;;;4.70;1.27;;;13.90;59.50;;;;;;5094834;28;20186;-71
2021/04/03 09:27:16;;;;;;;3.30;1.07;;;14.50;58.70;;;;;;5095124;28;20429;-70
2021/04/03 09:29:44;;;;;;;4.07;1.10;;;14.50;57.50;;;;;;5095209;28;20404;-70
2021/04/03 09:32:11;;;;;;;3.83;0.90;;;13.90;57.80;;;;;;5094973;28;20480;-71
2021/04/03 09:34:38;;;;;;;3.93;1.57;;;13.40;58.80;;;;;;5094344;28;20426;-71
2021/04/03 09:37:16;;;;;;;3.70;1.23;;;13.00;59.10;;;;;;5095026;28;20422;-70
2021/04/03 09:39:44;;;;;;;4.20;0.97;;;12.70;60.00;;;;;;5093654;28;20538;-72
2021/04/03 09:42:14;;;;;;;3.20;0.97;;;12.90;61.10;;;;;;5094902;28;20418;-71
2021/04/03 09:44:40;;;;;;;4.37;1.00;;;12.80;59.80;;;;;;5094197;28;20402;-72
2021/04/03 09:47:06;;;;;;;4.77;1.30;;;12.50;60.80;;;;;;5094874;28;20755;-72
2021/04/03 09:49:32;;;;;;;3.27;1.00;;;12.40;60.50;;;;;;5094930;28;20180;-72
2021/04/03 09:51:58;;;;;;;2.90;0.80;;;12.30;60.50;;;;;;5094818;28;20406;-70
2021/04/03 09:54:24;;;;;;;3.07;1.00;;;11.90;60.70;;;;;;5093014;28;20402;-71
2021/04/03 09:56:50;;;;;;;3.60;1.37;;;11.60;61.50;;;;;;5094558;28;20505;-71
2021/04/03 09:59:15;;;;;;;2.80;0.70;;;11.50;62.40;;;;;;5094730;28;20223;-70
2021/04/03 10:01:41;;;;;;;3.33;1.00;;;11.60;62.20;;;;;;5093177;28;20174;-72
2021/04/03 10:04:07;;;;;;;4.57;1.07;;;11.90;61.10;;;;;;5094381;28;20594;-72
2021/04/03 10:06:32;;;;;;;2.80;0.80;;;12.10;61.50;;;;;;5094456;28;20202;-72
2021/04/03 10:08:58;;;;;;;3.37;1.20;;;11.90;60.80;;;;;;5094659;28;20226;-70
2021/04/03 10:11:24;;;;;;;3.83;1.30;;;11.60;60.40;;;;;;5094428;28;20200;-71
2021/04/03 10:13:50;;;;;;;7.70;2.93;;;11.10;62.00;;;;;;5092767;28;20505;-71
2021/04/03 10:16:16;;;;;;;3.97;1.17;;;11.00;62.70;;;;;;5093711;28;20207;-72
2021/04/03 10:18:42;;;;;;;4.00;1.23;;;11.20;63.60;;;;;;5094332;28;20602;-72
2021/04/03 10:21:09;;;;;;;3.30;1.30;;;11.70;63.70;;;;;;5094235;28;20201;-72
2021/04/03 10:23:35;;;;;;;3.20;1.00;;;12.50;63.30;;;;;;5094254;28;20487;-69
2021/04/03 10:26:00;;;;;;;3.37;1.00;;;13.50;60.60;;;;;;5093745;28;20465;-70
2021/04/03 10:28:26;;;;;;;4.33;1.20;;;14.10;59.00;;;;;;5094140;28;20207;-71
2021/04/03 10:30:52;;;;;;;3.43;1.10;;;14.80;57.80;;;;;;5093797;28;20419;-72
2021/04/03 10:33:18;;;;;;;3.50;1.30;;;15.30;57.00;;;;;;5094231;28;20168;-70
2021/04/03 10:35:44;;;;;;;4.03;1.17;;;15.80;55.70;;;;;;5093172;28;20504;-71
2021/04/03 10:38:10;;;;;;;4.37;1.40;;;16.00;55.00;;;;;;5094144;28;20245;-71
2021/04/03 10:40:35;;;;;;;4.50;1.43;;;16.10;55.00;;;;;;5094048;28;20554;-71
2021/04/03 10:43:01;;;;;;;3.57;1.03;;;16.00;54.80;;;;;;5094177;28;20405;-72
2021/04/03 10:45:27;;;;;;;3.20;1.33;;;16.30;54.60;;;;;;5093513;28;20224;-72
2021/04/03 10:47:53;;;;;;;4.30;1.57;;;16.80;53.90;;;;;;5093179;28;20175;-72
2021/04/03 10:50:19;;;;;;;2.70;0.90;;;17.10;53.40;;;;;;5093441;28;20252;-72
2021/04/03 10:52:45;;;;;;;3.73;1.03;;;17.70;52.80;;;;;;5093452;28;20181;-72
2021/04/03 10:55:11;;;;;;;3.43;1.10;;;17.90;51.50;;;;;;5091809;28;20413;-70
2021/04/03 10:57:37;;;;;;;3.33;1.30;;;18.00;51.00;;;;;;5092473;28;20210;-72
2021/04/03 11:00:04;;;;;;;2.97;1.10;;;17.80;52.00;;;;;;5093673;28;20581;-71
2021/04/03 11:02:30;;;;;;;3.07;1.27;;;17.80;53.30;;;;;;5093660;28;20218;-70
2021/04/03 11:04:56;;;;;;;3.20;1.20;;;17.70;52.50;;;;;;5092454;28;20505;-71
2021/04/03 11:07:21;;;;;;;2.97;0.70;;;17.20;51.50;;;;;;5075508;28;20192;-72
2021/04/03 11:09:47;;;;;;;3.63;1.00;;;16.70;52.40;;;;;;5093428;28;20198;-73
2021/04/03 11:12:13;;;;;;;3.80;1.30;;;16.40;53.30;;;;;;5093337;28;20535;-72
2021/04/03 11:14:43;;;;;;;2.57;0.90;;;16.30;54.50;;;;;;5093224;28;20177;-72
2021/04/03 11:17:10;;;;;;;4.30;1.10;;;16.00;54.20;;;;;;5093414;28;20422;-71
2021/04/03 11:19:36;;;;;;;3.70;0.80;;;15.30;54.20;;;;;;5092818;28;20983;-71
2021/04/03 11:22:03;;;;;;;3.17;1.20;;;14.70;53.60;;;;;;5093275;28;20488;-70
2021/04/03 11:24:29;;;;;;;3.10;1.00;;;14.10;53.70;;;;;;5093331;28;20410;-70
2021/04/03 11:26:55;;;;;;;3.00;0.93;;;13.60;54.30;;;;;;5092782;28;20471;-71
2021/04/03 11:29:20;;;;;;;2.87;0.90;;;13.40;53.90;;;;;;5092998;28;20428;-71
2021/04/03 11:31:47;;;;;;;3.90;1.20;;;13.10;54.90;;;;;;5093395;28;20171;-71
2021/04/03 11:34:13;;;;;;;3.63;1.43;;;12.80;55.70;;;;;;5092981;28;20175;-71
2021/04/03 11:36:39;;;;;;;3.13;1.10;;;12.50;55.40;;;;;;5093076;28;20416;-72
2021/04/03 11:39:06;;;;;;;2.97;0.97;;;12.30;57.20;;;;;;5093150;28;20434;-71
2021/04/03 11:41:32;;;;;;;3.63;1.50;;;12.00;58.80;;;;;;5092928;28;20984;-69
2021/04/03 11:43:58;;;;;;;3.00;1.00;;;12.00;59.20;;;;;;5093203;28;20407;-70
2021/04/03 11:46:24;;;;;;;4.87;1.60;;;11.90;59.90;;;;;;5092947;28;20421;-72
2021/04/03 11:48:50;;;;;;;3.20;1.23;;;11.80;59.90;;;;;;5093018;28;20229;-69
2021/04/03 11:51:16;;;;;;;4.50;1.40;;;11.90;62.70;;;;;;5092683;28;20414;-70
2021/04/03 11:53:42;;;;;;;3.60;1.10;;;12.00;60.10;;;;;;5093147;28;20211;-72
2021/04/03 11:56:08;;;;;;;7.22;1.33;;;12.10;61.20;;;;;;5092846;28;20421;-71
2021/04/03 11:58:34;;;;;;;2.70;0.70;;;12.30;60.20;;;;;;5093361;28;20533;-72
2021/04/03 12:00:59;;;;;;;6.23;1.50;;;12.50;59.90;;;;;;5095722;28;20195;-71
2021/04/03 12:03:26;;;;;;;2.87;1.23;;;12.50;59.00;;;;;;5095387;28;20446;-71
2021/04/03 12:05:51;;;;;;;3.20;1.00;;;12.60;58.30;;;;;;5096357;28;20459;-71
2021/04/03 12:08:17;;;;;;;3.10;1.20;;;12.50;58.30;;;;;;5097125;28;20396;-70
2021/04/03 12:10:43;;;;;;;3.07;0.90;;;12.40;57.30;;;;;;5096215;28;20572;-73
2021/04/03 12:13:09;;;;;;;3.80;0.90;;;12.40;56.60;;;;;;5097003;28;20190;-71
2021/04/03 12:15:38;;;;;;;3.92;1.38;;;12.20;56.70;;;;;;5096118;28;20196;-71
2021/04/03 12:18:04;;;;;;;3.67;1.23;;;12.20;56.00;;;;;;5096729;28;20188;-71
2021/04/03 12:20:30;;;;;;;2.53;0.60;;;12.00;55.90;;;;;;5096742;28;20662;-72
2021/04/03 12:22:55;;;;;;;3.13;1.10;;;12.10;55.30;;;;;;5096397;28;20430;-72
2021/04/03 12:25:21;;;;;;;3.10;1.30;;;12.30;55.90;;;;;;5096353;28;20164;-70
2021/04/03 12:27:47;;;;;;;3.13;1.13;;;12.40;56.40;;;;;;5096609;28;20203;-70
2021/04/03 12:30:13;;;;;;;2.83;1.00;;;12.60;56.60;;;;;;5095908;28;20255;-69
2021/04/03 12:32:39;;;;;;;2.80;1.00;;;12.80;55.50;;;;;;5096373;28;20310;-70
2021/04/03 12:35:05;;;;;;;2.80;0.83;;;13.00;53.30;;;;;;5096110;28;20430;-70
2021/04/03 12:37:31;;;;;;;3.13;0.60;;;13.00;53.10;;;;;;5095082;28;20207;-71
2021/04/03 12:39:57;;;;;;;3.20;0.80;;;12.90;53.50;;;;;;5096121;28;20281;-71
2021/04/03 12:42:22;;;;;;;8.73;1.10;;;12.90;54.00;;;;;;5095878;28;20774;-68
2021/04/03 12:44:48;;;;;;;2.70;0.80;;;12.80;53.20;;;;;;5095825;28;20167;-71
2021/04/03 12:47:13;;;;;;;3.37;0.80;;;12.50;51.90;;;;;;5095983;28;20192;-71
2021/04/03 12:49:39;;;;;;;3.00;1.07;;;12.50;51.70;;;;;;5095960;28;20202;-70
2021/04/03 12:52:06;;;;;;;3.53;1.07;;;12.50;52.80;;;;;;5096071;28;20175;-70
2021/04/03 12:54:31;;;;;;;3.20;1.08;;;12.50;53.50;;;;;;5095644;28;20573;-68
2021/04/03 12:56:57;;;;;;;3.60;1.03;;;12.50;52.90;;;;;;5095888;28;20192;-69